createdAt,value
2022-11-29T00:01:40.563Z,92.93
2022-11-29T00:04:10.433Z,93.28
2022-11-29T00:06:39.206Z,93.37
2022-11-29T00:09:08.958Z,93.82
2022-11-29T00:11:56.208Z,93.82
2022-11-29T00:14:25.538Z,93.94
2022-11-29T00:16:55.765Z,93.73
2022-11-29T00:19:25.495Z,93.57
2022-11-29T00:21:53.480Z,93.61
2022-11-29T00:24:21.732Z,93.59
2022-11-29T00:26:50.025Z,93.24
2022-11-29T00:29:18.473Z,92.93
2022-11-29T00:31:46.740Z,92.73
2022-11-29T00:34:14.817Z,92.88
2022-11-29T00:36:44.154Z,93.21
2022-11-29T00:39:13.116Z,93.29
2022-11-29T00:41:41.379Z,93.26
2022-11-29T00:44:09.644Z,93.11
2022-11-29T00:46:38.020Z,93.29
2022-11-29T00:49:06.252Z,93.16
2022-11-29T00:51:34.230Z,93.31
2022-11-29T00:54:03.677Z,93.42
2022-11-29T00:56:31.709Z,93.44
2022-11-29T00:58:59.692Z,93.41
2022-11-29T01:01:27.763Z,93.31
2022-11-29T01:03:55.823Z,93.19
2022-11-29T01:06:23.777Z,93.31
2022-11-29T01:08:51.773Z,93.65
2022-11-29T01:11:23.143Z,93.69
2022-11-29T01:13:52.765Z,93.58
2022-11-29T01:16:20.948Z,93.70
2022-11-29T01:18:53.011Z,93.49
2022-11-29T01:21:22.810Z,93.84
2022-11-29T01:23:52.105Z,93.95
2022-11-29T01:26:24.223Z,94.05
2022-11-29T01:28:54.424Z,94.40
2022-11-29T01:31:24.634Z,94.05
2022-11-29T01:33:55.685Z,94.06
2022-11-29T01:36:23.764Z,94.05
2022-11-29T01:38:51.878Z,94.53
2022-11-29T01:41:23.279Z,94.48
2022-11-29T01:44:03.559Z,94.93
2022-11-29T01:46:33.358Z,94.80
2022-11-29T01:49:09.008Z,94.91
2022-11-29T01:51:38.604Z,94.88
2022-11-29T01:54:08.315Z,94.78
2022-11-29T01:56:39.851Z,94.75
2022-11-29T01:59:12.433Z,94.63
2022-11-29T02:01:40.476Z,94.52
2022-11-29T02:04:09.559Z,94.29
2022-11-29T02:06:38.476Z,94.46
2022-11-29T02:09:16.308Z,94.45
2022-11-29T02:12:16.545Z,94.60
2022-11-29T02:14:56.801Z,94.58
2022-11-29T02:17:35.475Z,94.74
2022-11-29T02:20:24.134Z,94.89
2022-11-29T02:22:59.229Z,94.99
2022-11-29T02:25:41.217Z,94.93
2022-11-29T02:28:40.661Z,94.84
2022-11-29T02:31:51.126Z,94.98
2022-11-29T02:34:39.305Z,94.90
2022-11-29T02:37:22.789Z,94.65
2022-11-29T02:40:04.906Z,94.67
2022-11-29T02:43:00.134Z,94.86
2022-11-29T02:45:42.961Z,94.78
2022-11-29T02:48:29.367Z,94.66
2022-11-29T02:51:05.375Z,94.49
2022-11-29T02:53:35.117Z,94.89
2022-11-29T02:56:13.287Z,94.87
2022-11-29T02:58:48.642Z,94.95
2022-11-29T03:01:21.184Z,94.98
2022-11-29T03:03:56.001Z,94.80
2022-11-29T03:06:37.099Z,94.88
2022-11-29T03:09:12.750Z,94.99
2022-11-29T03:11:49.243Z,94.88
2022-11-29T03:14:24.925Z,94.75
2022-11-29T03:17:01.804Z,95.01
2022-11-29T03:19:47.886Z,95.01
2022-11-29T03:22:33.588Z,94.93
2022-11-29T03:25:08.514Z,94.81
2022-11-29T03:27:42.163Z,94.84
2022-11-29T03:30:12.374Z,95.01
2022-11-29T03:32:51.691Z,95.00
2022-11-29T03:35:25.562Z,95.00
2022-11-29T03:38:02.518Z,94.96
2022-11-29T03:40:36.605Z,94.96
2022-11-29T03:43:08.855Z,94.97
2022-11-29T03:45:45.055Z,95.20
2022-11-29T03:48:18.566Z,95.04
2022-11-29T03:50:54.209Z,94.88
2022-11-29T03:53:32.984Z,94.93
2022-11-29T03:56:03.002Z,95.08
2022-11-29T03:58:40.557Z,95.01
2022-11-29T04:01:46.220Z,94.91
2022-11-29T04:04:44.190Z,95.11
2022-11-29T04:07:32.454Z,95.17
2022-11-29T04:10:33.996Z,95.28
2022-11-29T04:13:21.857Z,95.23
2022-11-29T04:16:07.653Z,95.39
2022-11-29T04:19:00.166Z,95.58
2022-11-29T04:21:50.412Z,95.25
2022-11-29T04:24:53.358Z,95.12
2022-11-29T04:27:41.557Z,95.04
2022-11-29T04:30:14.897Z,95.27
2022-11-29T04:33:29.106Z,95.39
2022-11-29T04:36:13.911Z,95.44
2022-11-29T04:39:16.092Z,95.43
2022-11-29T04:42:10.158Z,95.50
2022-11-29T04:45:09.287Z,95.59
2022-11-29T04:47:52.209Z,95.66
2022-11-29T04:50:34.327Z,95.74
2022-11-29T04:53:26.369Z,95.54
2022-11-29T04:56:05.377Z,95.52
2022-11-29T04:58:38.744Z,95.51
2022-11-29T05:01:16.181Z,95.41
2022-11-29T05:03:56.725Z,95.46
2022-11-29T05:06:30.500Z,95.50
2022-11-29T05:09:08.254Z,95.41
2022-11-29T05:11:50.327Z,95.40
2022-11-29T05:14:29.638Z,95.53
2022-11-29T05:17:20.254Z,95.57
2022-11-29T05:20:02.200Z,96.06
2022-11-29T05:22:37.283Z,95.93
2022-11-29T05:25:31.381Z,95.75
2022-11-29T05:28:10.246Z,96.12
2022-11-29T05:31:05.156Z,96.05
2022-11-29T05:33:53.635Z,95.68
2022-11-29T05:36:29.165Z,95.97
2022-11-29T05:39:10.336Z,96.10
2022-11-29T05:41:49.452Z,96.17
2022-11-29T05:44:25.580Z,96.15
2022-11-29T05:46:58.356Z,96.37
2022-11-29T05:49:37.283Z,96.28
2022-11-29T05:52:21.452Z,96.13
2022-11-29T05:55:05.135Z,95.90
2022-11-29T05:57:42.552Z,95.86
2022-11-29T06:00:12.876Z,95.91
2022-11-29T06:02:50.020Z,95.96
2022-11-29T06:05:27.050Z,95.91
2022-11-29T06:07:59.777Z,95.69
2022-11-29T06:10:33.590Z,95.79
2022-11-29T06:13:22.056Z,95.93
2022-11-29T06:16:23.875Z,96.02
2022-11-29T06:19:21.378Z,96.13
2022-11-29T06:22:00.650Z,96.19
2022-11-29T06:24:46.359Z,96.20
2022-11-29T06:27:40.532Z,96.19
2022-11-29T06:30:12.359Z,96.01
2022-11-29T06:32:50.827Z,95.95
2022-11-29T06:35:40.986Z,95.86
2022-11-29T06:38:18.161Z,95.88
2022-11-29T06:40:48.710Z,95.82
2022-11-29T06:43:17.717Z,95.57
2022-11-29T06:45:50.190Z,95.67
2022-11-29T06:48:24.107Z,95.82
2022-11-29T06:51:01.773Z,95.85
2022-11-29T06:53:41.343Z,95.89
2022-11-29T06:56:16.869Z,95.81
2022-11-29T06:58:57.576Z,95.93
2022-11-29T07:01:35.058Z,96.05
2022-11-29T07:04:25.226Z,95.71
2022-11-29T07:06:53.901Z,95.57
2022-11-29T07:09:31.739Z,95.39
2022-11-29T07:12:00.442Z,95.51
2022-11-29T07:14:29.128Z,95.59
2022-11-29T07:17:08.501Z,95.82
2022-11-29T07:19:46.089Z,95.72
2022-11-29T07:22:30.316Z,95.31
2022-11-29T07:25:04.377Z,95.23
2022-11-29T07:27:42.734Z,95.11
2022-11-29T07:30:15.367Z,95.31
2022-11-29T07:33:00.345Z,95.11
2022-11-29T07:35:34.788Z,95.21
2022-11-29T07:38:11.093Z,94.70
2022-11-29T07:40:45.898Z,94.31
2022-11-29T07:43:28.612Z,94.41
2022-11-29T07:45:57.463Z,93.94
2022-11-29T07:48:27.078Z,93.67
2022-11-29T07:50:58.094Z,94.19
2022-11-29T07:53:26.629Z,93.68
2022-11-29T07:55:56.243Z,94.03
2022-11-29T07:58:25.087Z,94.45
2022-11-29T08:00:53.183Z,94.26
2022-11-29T08:03:21.159Z,94.39
2022-11-29T08:05:49.628Z,94.37
2022-11-29T08:08:17.827Z,94.21
2022-11-29T08:10:46.553Z,94.38
2022-11-29T08:13:16.180Z,93.85
2022-11-29T08:15:47.798Z,93.92
2022-11-29T08:18:17.195Z,93.27
2022-11-29T08:20:46.423Z,93.37
2022-11-29T08:23:15.140Z,93.49
2022-11-29T08:25:43.752Z,93.16
2022-11-29T08:28:11.842Z,93.26
2022-11-29T08:30:45.446Z,92.45
2022-11-29T08:33:14.533Z,92.02
2022-11-29T08:35:42.598Z,92.38
2022-11-29T08:38:10.671Z,92.89
2022-11-29T08:40:38.750Z,92.71
2022-11-29T08:43:06.799Z,92.48
2022-11-29T08:45:34.920Z,92.70
2022-11-29T08:48:04.460Z,92.13
2022-11-29T08:50:32.558Z,92.50
2022-11-29T08:53:18.979Z,92.34
2022-11-29T08:55:47.043Z,92.04
2022-11-29T08:58:16.611Z,91.85
2022-11-29T09:00:47.269Z,91.97
2022-11-29T09:03:34.624Z,91.61
2022-11-29T09:06:11.980Z,91.83
2022-11-29T09:08:43.373Z,91.79
2022-11-29T09:11:15.616Z,91.92
2022-11-29T09:13:45.752Z,91.94
2022-11-29T09:16:18.057Z,90.29
2022-11-29T09:18:51.844Z,91.43
2022-11-29T09:21:20.633Z,90.86
2022-11-29T09:23:48.661Z,90.73
2022-11-29T09:26:18.922Z,89.93
2022-11-29T09:28:49.362Z,90.33
2022-11-29T09:31:20.340Z,89.72
2022-11-29T09:33:50.174Z,89.47
2022-11-29T09:36:18.329Z,89.06
2022-11-29T09:38:46.343Z,88.33
2022-11-29T09:41:33.518Z,88.93
2022-11-29T09:44:11.046Z,89.30
2022-11-29T09:46:58.573Z,90.19
2022-11-29T09:49:52.033Z,89.44
2022-11-29T09:52:35.440Z,88.73
2022-11-29T09:55:11.228Z,89.43
2022-11-29T09:57:43.979Z,89.85
2022-11-29T10:00:17.374Z,89.39
2022-11-29T10:02:49.110Z,88.91
2022-11-29T10:05:23.066Z,88.69
2022-11-29T10:07:57.872Z,88.68
2022-11-29T10:10:30.710Z,87.81
2022-11-29T10:13:03.199Z,88.48
2022-11-29T10:15:35.509Z,87.45
2022-11-29T10:18:08.201Z,87.53
2022-11-29T10:20:49.064Z,87.65
2022-11-29T10:23:24.786Z,88.54
2022-11-29T10:25:55.321Z,87.60
2022-11-29T10:28:32.273Z,88.63
2022-11-29T10:31:07.334Z,88.54
2022-11-29T10:33:38.198Z,88.43
2022-11-29T10:36:17.814Z,87.13
2022-11-29T10:38:47.770Z,86.78
2022-11-29T10:41:21.672Z,86.81
2022-11-29T10:43:51.173Z,85.88
2022-11-29T10:46:29.108Z,86.50
2022-11-29T10:48:59.112Z,85.34
2022-11-29T10:51:30.910Z,84.92
2022-11-29T10:54:14.105Z,84.61
2022-11-29T10:56:42.906Z,85.05
2022-11-29T10:59:21.610Z,85.20
2022-11-29T11:01:50.065Z,84.79
2022-11-29T11:04:26.763Z,83.98
2022-11-29T11:06:57.940Z,84.11
2022-11-29T11:09:32.148Z,83.00
2022-11-29T11:12:02.286Z,83.82
2022-11-29T11:14:34.753Z,82.96
2022-11-29T11:17:18.028Z,83.49
2022-11-29T11:19:55.923Z,84.06
2022-11-29T11:22:28.425Z,82.45
2022-11-29T11:25:01.964Z,82.58
2022-11-29T11:27:35.741Z,82.15
2022-11-29T11:30:05.623Z,80.88
2022-11-29T11:32:33.736Z,83.18
2022-11-29T11:35:03.253Z,81.98
2022-11-29T11:37:35.856Z,83.85
2022-11-29T11:40:27.382Z,83.85
2022-11-29T11:43:00.232Z,81.62
2022-11-29T11:45:35.139Z,83.67
2022-11-29T11:48:06.871Z,82.33
2022-11-29T11:50:38.624Z,82.05
2022-11-29T11:53:21.222Z,81.65
2022-11-29T11:55:57.229Z,82.23
2022-11-29T11:58:27.813Z,82.17
2022-11-29T12:01:06.271Z,81.74
2022-11-29T12:03:46.323Z,82.50
2022-11-29T12:06:41.223Z,82.67
2022-11-29T12:09:19.492Z,81.22
2022-11-29T12:12:00.220Z,80.80
2022-11-29T12:14:37.763Z,82.36
2022-11-29T12:17:16.969Z,81.94
2022-11-29T12:19:56.861Z,82.68
2022-11-29T12:22:28.610Z,83.04
2022-11-29T12:25:25.651Z,83.31
2022-11-29T12:27:54.753Z,83.12
2022-11-29T12:30:22.934Z,82.36
2022-11-29T12:33:07.518Z,84.21
2022-11-29T12:35:52.612Z,83.16
2022-11-29T12:38:35.691Z,82.02
2022-11-29T12:41:19.225Z,81.46
2022-11-29T12:43:58.320Z,80.88
2022-11-29T12:46:34.265Z,80.89
2022-11-29T12:49:11.258Z,81.61
2022-11-29T12:51:48.562Z,81.46
2022-11-29T12:54:34.584Z,79.30
2022-11-29T12:57:12.812Z,78.62
2022-11-29T13:00:04.611Z,79.07
2022-11-29T13:02:44.250Z,80.38
2022-11-29T13:05:21.293Z,77.42
2022-11-29T13:08:05.322Z,79.19
2022-11-29T13:10:54.409Z,79.17
2022-11-29T13:13:32.279Z,79.62
2022-11-29T13:16:07.173Z,80.23
2022-11-29T13:18:39.719Z,80.05
2022-11-29T13:21:14.320Z,81.09
2022-11-29T13:26:41.167Z,82.10
2022-11-29T13:29:15.745Z,80.79
2022-11-29T13:31:45.118Z,80.49
2022-11-29T13:34:17.415Z,81.58
2022-11-29T13:36:54.533Z,82.30
2022-11-29T13:39:40.062Z,82.58
2022-11-29T13:42:14.854Z,82.77
2022-11-29T13:44:52.887Z,84.56
2022-11-29T13:47:21.840Z,86.03
2022-11-29T13:50:02.745Z,86.77
2022-11-29T13:52:40.647Z,87.20
2022-11-29T13:55:23.210Z,87.62
2022-11-29T13:58:15.319Z,88.01
2022-11-29T14:00:52.404Z,88.05
2022-11-29T14:03:32.207Z,87.63
2022-11-29T14:06:18.592Z,87.97
2022-11-29T14:09:25.111Z,88.42
2022-11-29T14:12:02.864Z,88.58
2022-11-29T14:14:37.411Z,88.33
2022-11-29T14:17:27.519Z,88.40
2022-11-29T14:20:34.419Z,88.94
2022-11-29T14:23:16.714Z,88.95
2022-11-29T14:26:28.760Z,88.88
2022-11-29T14:29:01.737Z,89.04
2022-11-29T14:31:52.548Z,89.50
2022-11-29T14:34:39.833Z,89.65
2022-11-29T14:37:21.399Z,89.71
2022-11-29T14:39:52.539Z,89.69
2022-11-29T14:42:22.771Z,89.70
2022-11-29T14:44:52.817Z,89.62
2022-11-29T14:47:29.977Z,89.90
2022-11-29T14:50:03.862Z,90.17
2022-11-29T14:52:34.690Z,90.68
2022-11-29T14:55:09.842Z,90.50
2022-11-29T14:58:19.517Z,90.22
2022-11-29T15:01:01.784Z,90.10
2022-11-29T15:03:37.920Z,90.59
2022-11-29T15:06:15.872Z,90.37
2022-11-29T15:08:55.280Z,90.23
2022-11-29T15:11:35.149Z,90.49
2022-11-29T15:14:16.986Z,90.54
2022-11-29T15:17:17.559Z,90.65
2022-11-29T15:20:03.056Z,90.04
2022-11-29T15:22:46.438Z,90.46
2022-11-29T15:25:47.760Z,90.22
2022-11-29T15:28:23.390Z,89.95
2022-11-29T15:31:03.599Z,89.95
2022-11-29T15:33:35.570Z,90.34
2022-11-29T15:36:07.406Z,90.68
2022-11-29T15:38:45.860Z,90.61
2022-11-29T15:41:20.656Z,90.78
2022-11-29T15:43:52.487Z,89.68
2022-11-29T15:46:22.050Z,89.97
2022-11-29T15:48:50.167Z,89.26
2022-11-29T15:51:26.653Z,89.58
2022-11-29T15:54:12.784Z,89.52
2022-11-29T15:56:46.138Z,89.22
2022-11-29T15:59:22.736Z,88.32
2022-11-29T16:01:54.533Z,89.62
2022-11-29T16:04:24.525Z,90.14
2022-11-29T16:06:55.027Z,89.99
2022-11-29T16:09:35.705Z,90.43
2022-11-29T16:12:05.553Z,90.17
2022-11-29T16:14:34.336Z,90.53
2022-11-29T16:17:05.803Z,90.70
2022-11-29T16:19:36.991Z,91.37
2022-11-29T16:22:25.918Z,91.53
2022-11-29T16:25:04.581Z,91.26
2022-11-29T16:27:34.409Z,91.37
2022-11-29T16:30:03.672Z,91.14
2022-11-29T16:32:37.013Z,90.57
2022-11-29T16:35:14.078Z,90.51
2022-11-29T16:37:45.961Z,90.90
2022-11-29T16:40:24.260Z,91.03
2022-11-29T16:43:08.794Z,90.94
2022-11-29T16:45:38.536Z,90.75
2022-11-29T16:48:32.271Z,89.66
2022-11-29T16:51:25.040Z,89.14
2022-11-29T16:53:57.856Z,89.38
2022-11-29T16:56:30.188Z,90.43
2022-11-29T16:59:20.589Z,88.94
2022-11-29T17:01:55.466Z,88.96
2022-11-29T17:04:25.165Z,89.07
2022-11-29T17:06:58.368Z,89.49
2022-11-29T17:09:28.602Z,90.62
2022-11-29T17:11:59.941Z,90.60
2022-11-29T17:14:28.421Z,91.42
2022-11-29T17:17:00.933Z,90.47
2022-11-29T17:19:30.355Z,91.58
2022-11-29T17:21:58.455Z,91.26
2022-11-29T17:24:26.554Z,91.30
2022-11-29T17:26:54.584Z,91.81
2022-11-29T17:29:27.988Z,91.93
2022-11-29T17:31:56.125Z,91.26
2022-11-29T17:34:24.344Z,91.79
2022-11-29T17:36:52.586Z,90.98
2022-11-29T17:39:21.856Z,91.23
2022-11-29T17:41:50.062Z,91.60
2022-11-29T17:44:18.203Z,92.11
2022-11-29T17:47:15.565Z,92.77
2022-11-29T17:49:44.008Z,92.78
2022-11-29T17:52:12.469Z,92.92
2022-11-29T17:54:40.529Z,93.50
2022-11-29T17:57:08.919Z,93.46
2022-11-29T17:59:37.310Z,93.36
2022-11-29T18:02:05.932Z,93.80
2022-11-29T18:04:36.191Z,94.18
2022-11-29T18:07:06.296Z,93.86
2022-11-29T18:09:34.467Z,93.76
2022-11-29T18:12:02.912Z,93.63
2022-11-29T18:14:31.685Z,93.79
2022-11-29T18:17:00.173Z,93.93
2022-11-29T18:19:30.689Z,94.23
2022-11-29T18:22:01.288Z,94.35
2022-11-29T18:24:29.800Z,94.41
2022-11-29T18:26:58.547Z,94.19
2022-11-29T18:29:28.111Z,94.30
2022-11-29T18:31:59.046Z,94.53
2022-11-29T18:34:27.276Z,94.36
2022-11-29T18:36:55.805Z,94.10
2022-11-29T18:39:25.418Z,94.43
2022-11-29T18:41:53.872Z,94.50
2022-11-29T18:44:24.422Z,93.71
2022-11-29T18:46:52.618Z,93.69
2022-11-29T18:49:20.968Z,93.08
2022-11-29T18:51:50.558Z,93.23
2022-11-29T18:54:20.914Z,92.85
2022-11-29T18:56:52.007Z,93.30
2022-11-29T18:59:22.064Z,93.30
2022-11-29T19:01:51.029Z,93.15
2022-11-29T19:04:21.574Z,94.11
2022-11-29T19:06:50.281Z,93.89
2022-11-29T19:09:21.308Z,94.34
2022-11-29T19:11:51.384Z,94.18
2022-11-29T19:14:20.440Z,94.15
2022-11-29T19:16:50.052Z,93.70
2022-11-29T19:19:19.959Z,93.95
2022-11-29T19:21:48.855Z,93.65
2022-11-29T19:24:18.751Z,93.43
2022-11-29T19:26:55.768Z,93.57
2022-11-29T19:29:24.097Z,93.65
2022-11-29T19:31:52.456Z,93.46
2022-11-29T19:34:20.722Z,92.89
2022-11-29T19:36:49.176Z,93.79
2022-11-29T19:39:18.754Z,94.22
2022-11-29T19:41:48.515Z,93.45
2022-11-29T19:44:18.438Z,92.83
2022-11-29T19:46:48.801Z,93.97
2022-11-29T19:49:17.329Z,94.19
2022-11-29T19:51:45.680Z,94.14
2022-11-29T19:54:13.786Z,93.47
2022-11-29T19:56:42.167Z,94.49
2022-11-29T19:59:11.591Z,94.33
2022-11-29T20:01:43.817Z,94.37
2022-11-29T20:04:13.493Z,94.38
2022-11-29T20:06:42.334Z,94.49
2022-11-29T20:09:14.702Z,94.52
2022-11-29T20:11:45.033Z,94.61
2022-11-29T20:14:14.710Z,94.67
2022-11-29T20:16:44.265Z,94.70
2022-11-29T20:19:14.223Z,94.59
2022-11-29T20:21:44.471Z,94.50
2022-11-29T20:24:14.453Z,94.50
2022-11-29T20:26:44.725Z,94.43
2022-11-29T20:29:14.160Z,94.35
2022-11-29T20:31:50.505Z,94.34
2022-11-29T20:34:20.491Z,94.36
2022-11-29T20:37:07.387Z,94.28
2022-11-29T20:39:42.131Z,94.15
2022-11-29T20:42:40.185Z,94.17
2022-11-29T20:45:10.221Z,94.07
2022-11-29T20:47:50.238Z,93.95
2022-11-29T20:50:23.526Z,93.86
2022-11-29T20:53:11.071Z,93.93
2022-11-29T20:55:46.311Z,94.02
2022-11-29T20:58:17.691Z,94.05
2022-11-29T21:00:46.792Z,93.89
2022-11-29T21:03:16.871Z,93.82
2022-11-29T21:05:51.552Z,93.99
2022-11-29T21:08:22.263Z,94.05
2022-11-29T21:10:51.054Z,94.08
2022-11-29T21:13:21.473Z,94.06
2022-11-29T21:15:52.164Z,93.90
2022-11-29T21:18:26.910Z,93.63
2022-11-29T21:21:05.391Z,93.82
2022-11-29T21:23:43.994Z,93.85
2022-11-29T21:26:17.733Z,93.54
2022-11-29T21:28:56.875Z,93.67
2022-11-29T21:31:25.358Z,93.67
2022-11-29T21:33:55.832Z,93.78
2022-11-29T21:36:25.037Z,93.68
2022-11-29T21:38:55.296Z,93.45
2022-11-29T21:41:23.710Z,93.78
2022-11-29T21:44:06.203Z,93.61
2022-11-29T21:46:35.217Z,93.30
2022-11-29T21:49:06.028Z,93.21
2022-11-29T21:51:34.019Z,93.00
2022-11-29T21:54:03.333Z,92.68
2022-11-29T21:56:31.507Z,92.05
2022-11-29T21:58:59.522Z,92.08
2022-11-29T22:01:28.267Z,92.23
2022-11-29T22:03:56.303Z,91.94
2022-11-29T22:06:26.412Z,92.01
2022-11-29T22:08:55.452Z,92.28
2022-11-29T22:11:31.952Z,92.32
2022-11-29T22:14:18.028Z,92.05
2022-11-29T22:16:48.424Z,91.40
2022-11-29T22:19:17.909Z,91.49
2022-11-29T22:21:49.020Z,90.35
2022-11-29T22:24:19.397Z,89.72
2022-11-29T22:26:47.761Z,89.73
2022-11-29T22:29:16.129Z,89.51
2022-11-29T22:31:46.914Z,88.35
2022-11-29T22:34:15.354Z,88.16
2022-11-29T22:36:47.624Z,87.98
2022-11-29T22:39:17.939Z,87.33
2022-11-29T22:41:52.220Z,86.91
2022-11-29T22:44:25.946Z,87.56
2022-11-29T22:46:54.012Z,87.84
2022-11-29T22:49:22.085Z,88.11
2022-11-29T22:51:50.193Z,87.25
2022-11-29T22:54:20.436Z,87.36
2022-11-29T22:56:49.523Z,87.27
2022-11-29T22:59:17.609Z,86.68
2022-11-29T23:01:45.684Z,86.68
2022-11-29T23:04:14.095Z,86.33
2022-11-29T23:06:44.425Z,84.73
2022-11-29T23:09:16.755Z,85.10
2022-11-29T23:11:51.017Z,84.36
2022-11-29T23:14:19.250Z,85.15
2022-11-29T23:16:47.519Z,85.53
2022-11-29T23:19:17.337Z,84.99
2022-11-29T23:21:46.371Z,85.08
2022-11-29T23:24:14.795Z,84.49
2022-11-29T23:26:47.207Z,83.85
2022-11-29T23:29:17.444Z,83.00
2022-11-29T23:31:46.703Z,83.74
2022-11-29T23:34:15.003Z,82.90
2022-11-29T23:36:49.633Z,83.43
2022-11-29T23:39:22.677Z,83.78
2022-11-29T23:41:52.075Z,83.88
2022-11-29T23:44:20.094Z,84.21
2022-11-29T23:46:48.160Z,84.19
2022-11-29T23:49:16.165Z,84.19
2022-11-29T23:51:44.177Z,84.67
2022-11-29T23:54:12.364Z,84.63
2022-11-29T23:56:40.479Z,84.67
2022-11-29T23:59:09.833Z,84.86
